Time;durP1;ratioP1;P1;durP2;ratioP2;P2;SDS_P1;SDS_P2;PMS_P1;PMS_P2;Temp;Humidity;BMP_temperature;BMP_pressure;BME280_temperature;BME280_humidity;BME280_pressure;Samples;Min_cycle;Max_cycle;Signal;HPM_P1;HPM_P2
2022/08/21 00:10:06;;;;;;;7.75;7.05;;;13.40;99.90;;;;;;6075295;23;20030;-82
2022/08/21 00:12:32;;;;;;;8.57;7.70;;;13.40;99.90;;;;;;6191682;23;20475;-82
2022/08/21 00:14:58;;;;;;;7.50;6.88;;;13.40;99.90;;;;;;6192415;23;20004;-82
2022/08/21 00:17:24;;;;;;;7.95;7.18;;;13.40;99.90;;;;;;6191738;23;20019;-82
2022/08/21 00:19:50;;;;;;;7.63;6.90;;;13.40;99.90;;;;;;6181067;23;20004;-82
2022/08/21 00:22:15;;;;;;;7.45;6.82;;;13.30;99.90;;;;;;6161954;23;20071;-81
2022/08/21 00:24:41;;;;;;;8.00;7.30;;;13.30;99.90;;;;;;6186699;23;20451;-81
2022/08/21 00:27:07;;;;;;;6.78;6.18;;;13.20;99.90;;;;;;6185798;23;20464;-81
2022/08/21 00:29:33;;;;;;;6.93;6.32;;;13.20;99.90;;;;;;6162405;23;20013;-81
2022/08/21 00:31:58;;;;;;;7.70;6.97;;;13.20;99.90;;;;;;6161943;23;20036;-82
2022/08/21 00:34:24;;;;;;;7.05;6.45;;;13.10;99.90;;;;;;6187221;23;20009;-82
2022/08/21 00:36:50;;;;;;;7.45;6.70;;;13.10;99.90;;;;;;6162700;23;20083;-82
2022/08/21 00:39:15;;;;;;;7.13;6.45;;;13.10;99.90;;;;;;6187034;23;20139;-82
2022/08/21 00:41:42;;;;;;;7.43;6.70;;;12.90;99.90;;;;;;6160717;23;20016;-82
2022/08/21 00:44:10;;;;;;;7.53;6.82;;;12.90;99.90;;;;;;6161799;23;20020;-82
2022/08/21 00:46:36;;;;;;;7.10;6.40;;;12.90;99.90;;;;;;6162459;23;20412;-82
2022/08/21 00:49:03;;;;;;;6.60;6.00;;;12.80;99.90;;;;;;6161997;23;20079;-82
2022/08/21 00:51:36;;;;;;;7.80;7.10;;;12.80;99.90;;;;;;6161687;23;20028;-83
2022/08/21 00:54:03;;;;;;;7.38;6.68;;;12.80;99.90;;;;;;6187389;23;20015;-81
2022/08/21 00:56:29;;;;;;;7.55;6.85;;;12.70;99.90;;;;;;6161945;23;20047;-82
2022/08/21 00:58:57;;;;;;;7.35;6.65;;;12.70;99.90;;;;;;6186958;23;20016;-81
2022/08/21 01:01:23;;;;;;;7.15;6.47;;;12.70;99.90;;;;;;6161759;23;20016;-82
2022/08/21 01:03:49;;;;;;;7.20;6.60;;;12.60;99.90;;;;;;6187225;23;20023;-82
2022/08/21 01:06:14;;;;;;;7.97;7.18;;;12.60;99.90;;;;;;6186576;23;20348;-82
2022/08/21 01:08:41;;;;;;;7.72;7.07;;;12.60;99.90;;;;;;6186868;23;20012;-81
2022/08/21 01:11:06;;;;;;;8.10;7.40;;;12.60;99.90;;;;;;6161343;23;20027;-81
2022/08/21 01:13:36;;;;;;;8.35;7.55;;;12.60;99.90;;;;;;6162224;23;20040;-82
2022/08/21 01:16:04;;;;;;;8.48;7.68;;;12.60;99.90;;;;;;6161743;23;20341;-81
2022/08/21 01:18:30;;;;;;;8.25;7.50;;;12.60;99.90;;;;;;6161659;23;20008;-81
2022/08/21 01:21:06;;;;;;;8.60;7.90;;;12.50;99.90;;;;;;6161721;23;20077;-82
2022/08/21 01:23:33;;;;;;;8.23;7.53;;;12.60;99.90;;;;;;6187111;23;20472;-82
2022/08/21 01:25:59;;;;;;;8.38;7.68;;;12.60;99.90;;;;;;6186507;23;20028;-82
2022/08/21 01:28:26;;;;;;;7.90;7.25;;;12.60;99.90;;;;;;6161093;23;20456;-82
2022/08/21 01:30:54;;;;;;;7.97;7.22;;;12.50;99.90;;;;;;6185895;23;20008;-82
2022/08/21 01:33:21;;;;;;;7.57;6.97;;;12.50;99.90;;;;;;6186875;23;20520;-82
2022/08/21 01:35:46;;;;;;;7.85;7.15;;;12.50;99.90;;;;;;6161589;23;20392;-82
2022/08/21 01:38:12;;;;;;;7.65;6.93;;;12.50;99.90;;;;;;6186766;23;20062;-82
2022/08/21 01:40:38;;;;;;;7.38;6.72;;;12.40;99.90;;;;;;6162989;23;20009;-82
2022/08/21 01:43:03;;;;;;;7.63;6.95;;;12.40;99.90;;;;;;6162415;23;20012;-82
2022/08/21 01:45:30;;;;;;;8.15;7.47;;;12.40;99.90;;;;;;6162699;23;20023;-82
2022/08/21 01:47:55;;;;;;;7.85;7.15;;;12.30;99.90;;;;;;6188275;23;20453;-82
2022/08/21 01:50:21;;;;;;;8.48;7.78;;;12.30;99.90;;;;;;6188140;23;20023;-82
2022/08/21 01:52:48;;;;;;;9.88;9.07;;;12.30;99.90;;;;;;6188628;23;20017;-82
2022/08/21 01:55:15;;;;;;;10.43;9.50;;;12.20;99.90;;;;;;6188880;23;20460;-82
2022/08/21 01:57:42;;;;;;;9.40;8.57;;;12.30;99.90;;;;;;6162734;23;20090;-82
2022/08/21 02:00:11;;;;;;;12.20;11.15;;;12.30;99.90;;;;;;6163252;23;20474;-82
2022/08/21 02:02:37;;;;;;;10.30;9.40;;;12.30;99.90;;;;;;6188382;23;20029;-83
2022/08/21 02:05:04;;;;;;;10.38;9.48;;;12.30;99.90;;;;;;6163926;23;20028;-82
2022/08/21 02:07:44;;;;;;;10.13;9.23;;;12.30;99.90;;;;;;6162331;23;20352;-82
2022/08/21 02:10:12;;;;;;;9.65;8.65;;;12.30;99.90;;;;;;6163070;23;20055;-82
2022/08/21 02:12:38;;;;;;;10.80;9.80;;;12.40;99.90;;;;;;6163423;23;20009;-82
2022/08/21 02:15:05;;;;;;;8.93;8.13;;;12.30;99.90;;;;;;6163770;23;20009;-82
2022/08/21 02:17:39;;;;;;;9.00;8.30;;;12.30;99.90;;;;;;6162462;23;20455;-82
2022/08/21 02:20:05;;;;;;;10.50;8.55;;;12.30;99.90;;;;;;6162870;23;20368;-82
2022/08/21 02:22:31;;;;;;;8.98;8.20;;;12.20;99.90;;;;;;6163551;23;20063;-82
2022/08/21 02:24:56;;;;;;;9.98;9.15;;;12.10;99.90;;;;;;6188570;23;20020;-82
2022/08/21 02:27:23;;;;;;;9.65;8.85;;;12.20;99.90;;;;;;6162750;23;20449;-82
2022/08/21 02:29:49;;;;;;;10.38;9.48;;;12.20;99.90;;;;;;6187674;23;20062;-81
2022/08/21 02:32:15;;;;;;;11.30;10.30;;;12.20;99.90;;;;;;6186696;23;20090;-82
2022/08/21 02:34:40;;;;;;;13.77;12.48;;;12.20;99.90;;;;;;6163614;23;20064;-82
2022/08/21 02:37:06;;;;;;;13.38;12.18;;;12.20;99.90;;;;;;6213190;23;20016;-82
2022/08/21 02:39:31;;;;;;;15.25;13.65;;;12.20;99.90;;;;;;6163547;23;20051;-82
2022/08/21 02:41:57;;;;;;;14.68;13.38;;;12.10;99.90;;;;;;6162460;23;20016;-81
2022/08/21 02:44:22;;;;;;;15.27;13.85;;;12.30;99.90;;;;;;6162121;23;20471;-81
2022/08/21 02:46:48;;;;;;;14.63;13.23;;;12.30;99.90;;;;;;6163202;23;20071;-82
2022/08/21 02:49:14;;;;;;;13.93;12.63;;;12.40;99.90;;;;;;6187831;23;20017;-82
2022/08/21 02:51:41;;;;;;;13.43;12.23;;;12.40;99.90;;;;;;6187631;23;20013;-83
2022/08/21 02:54:06;;;;;;;13.32;12.13;;;12.30;99.90;;;;;;6162698;23;20350;-82
2022/08/21 02:56:32;;;;;;;11.65;10.65;;;12.40;99.90;;;;;;6212930;23;20009;-82
2022/08/21 02:58:57;;;;;;;12.10;10.80;;;12.40;99.90;;;;;;6212429;23;20009;-82
2022/08/21 03:01:23;;;;;;;11.73;10.73;;;12.40;99.90;;;;;;6162598;23;20016;-82
2022/08/21 03:03:52;;;;;;;12.27;11.13;;;12.30;99.90;;;;;;6163088;23;20020;-82
2022/08/21 03:06:21;;;;;;;11.93;10.82;;;12.30;99.90;;;;;;6163124;23;20017;-82
2022/08/21 03:08:46;;;;;;;10.77;9.88;;;12.20;99.90;;;;;;6161714;23;20020;-82
2022/08/21 03:11:13;;;;;;;10.88;9.80;;;12.20;99.90;;;;;;6162174;23;20012;-83
2022/08/21 03:13:39;;;;;;;10.52;9.63;;;12.30;99.90;;;;;;6163171;23;20043;-82
2022/08/21 03:16:06;;;;;;;10.52;9.63;;;12.20;99.90;;;;;;6187989;23;20005;-82
2022/08/21 03:18:32;;;;;;;10.68;9.68;;;12.20;99.90;;;;;;6162792;23;20446;-82
2022/08/21 03:20:57;;;;;;;12.02;11.02;;;12.20;99.90;;;;;;6162503;23;20040;-82
2022/08/21 03:23:23;;;;;;;12.90;11.57;;;12.20;99.90;;;;;;6162086;23;20009;-82
2022/08/21 03:25:50;;;;;;;12.60;11.50;;;12.10;99.90;;;;;;6212756;23;20019;-82
2022/08/21 03:28:19;;;;;;;11.40;10.32;;;12.10;99.90;;;;;;6187577;23;20384;-82
2022/08/21 03:30:47;;;;;;;13.32;12.23;;;12.10;99.90;;;;;;6162517;23;20010;-82
2022/08/21 03:33:13;;;;;;;14.13;12.80;;;12.10;99.90;;;;;;6163074;23;20019;-82
2022/08/21 03:35:40;;;;;;;14.52;13.27;;;12.10;99.90;;;;;;6162624;23;20040;-82
2022/08/21 03:38:05;;;;;;;12.90;11.65;;;12.20;99.90;;;;;;6161738;23;20012;-82
2022/08/21 03:40:31;;;;;;;14.82;13.52;;;12.20;99.90;;;;;;6162167;23;20441;-82
2022/08/21 03:42:58;;;;;;;13.77;12.40;;;12.20;99.90;;;;;;6162884;23;20099;-82
2022/08/21 03:45:24;;;;;;;15.20;13.90;;;12.20;99.90;;;;;;6187795;23;20019;-82
2022/08/21 03:47:55;;;;;;;14.05;12.85;;;12.20;99.90;;;;;;6212378;23;20034;-82
2022/08/21 03:50:23;;;;;;;13.80;12.52;;;12.30;99.90;;;;;;6162777;23;20091;-82
2022/08/21 03:52:49;;;;;;;12.73;11.63;;;12.30;99.90;;;;;;6162401;23;20020;-82
2022/08/21 03:55:14;;;;;;;12.32;11.23;;;12.20;99.90;;;;;;6163046;23;20337;-82
2022/08/21 03:57:40;;;;;;;13.48;12.27;;;12.20;99.90;;;;;;6212478;23;20387;-82
2022/08/21 04:00:08;;;;;;;12.57;11.55;;;12.10;99.90;;;;;;6162607;23;20156;-82
2022/08/21 04:02:34;;;;;;;14.05;12.80;;;12.10;99.90;;;;;;6162566;23;20012;-83
2022/08/21 04:04:59;;;;;;;14.18;12.98;;;12.10;99.90;;;;;;6162441;23;20015;-82
2022/08/21 04:07:25;;;;;;;13.85;12.75;;;12.20;99.90;;;;;;6162269;23;20527;-82
2022/08/21 04:09:51;;;;;;;12.73;11.52;;;12.10;99.90;;;;;;6162356;23;20008;-82
2022/08/21 04:12:16;;;;;;;13.70;12.38;;;12.00;99.90;;;;;;6187399;23;20017;-82
2022/08/21 04:14:42;;;;;;;14.68;13.43;;;12.10;99.90;;;;;;6187253;23;20438;-81
2022/08/21 04:17:07;;;;;;;13.35;12.25;;;12.10;99.90;;;;;;6187307;23;20034;-82
2022/08/21 04:19:33;;;;;;;13.32;12.18;;;12.10;99.90;;;;;;6162487;23;20463;-82
2022/08/21 04:21:59;;;;;;;13.35;12.25;;;12.00;99.90;;;;;;6162127;23;20052;-82
2022/08/21 04:24:24;;;;;;;13.15;11.95;;;12.10;99.90;;;;;;6162437;23;20009;-83
2022/08/21 04:26:50;;;;;;;12.88;11.80;;;12.00;99.90;;;;;;6212268;23;20020;-82
2022/08/21 04:29:15;;;;;;;13.18;12.07;;;12.00;99.90;;;;;;6162140;23;20457;-82
2022/08/21 04:31:43;;;;;;;13.70;12.48;;;12.00;99.90;;;;;;6212180;23;20058;-82
2022/08/21 04:34:09;;;;;;;12.32;11.32;;;12.00;99.90;;;;;;6162622;23;20381;-82
2022/08/21 04:36:35;;;;;;;11.68;10.68;;;12.00;99.90;;;;;;6187431;23;20016;-82
2022/08/21 04:39:01;;;;;;;12.02;11.00;;;12.00;99.90;;;;;;6187260;23;20012;-82
2022/08/21 04:41:28;;;;;;;11.25;10.25;;;12.00;99.90;;;;;;6186211;23;20465;-82
2022/08/21 04:43:55;;;;;;;11.13;10.15;;;11.90;99.90;;;;;;6185916;23;20463;-82
2022/08/21 04:46:21;;;;;;;11.68;10.57;;;11.90;99.90;;;;;;6187373;23;20031;-82
2022/08/21 04:48:47;;;;;;;11.88;10.75;;;11.90;99.90;;;;;;6162382;23;20021;-82
2022/08/21 04:51:18;;;;;;;12.52;11.43;;;11.90;99.90;;;;;;6162215;23;20016;-82
2022/08/21 04:53:58;;;;;;;11.82;10.73;;;11.90;99.90;;;;;;6187513;23;20008;-82
2022/08/21 04:56:26;;;;;;;12.02;10.93;;;12.00;99.90;;;;;;6162348;23;20095;-82
2022/08/21 04:59:02;;;;;;;11.25;10.15;;;12.00;99.90;;;;;;6186976;23;20009;-82
2022/08/21 05:01:30;;;;;;;12.30;11.20;;;12.00;99.90;;;;;;6162335;23;20013;-82
2022/08/21 05:03:59;;;;;;;11.30;10.30;;;12.00;99.90;;;;;;6186703;23;20051;-82
2022/08/21 05:06:25;;;;;;;10.90;9.90;;;12.10;99.90;;;;;;6162329;23;20116;-82
2022/08/21 05:08:53;;;;;;;10.98;9.90;;;12.10;99.90;;;;;;6162390;23;20058;-82
2022/08/21 05:11:19;;;;;;;11.50;10.45;;;12.10;99.90;;;;;;6186457;23;20016;-82
2022/08/21 05:13:45;;;;;;;12.07;10.75;;;12.10;99.90;;;;;;6162809;23;20009;-82
2022/08/21 05:16:11;;;;;;;11.10;10.00;;;12.20;99.90;;;;;;6189053;23;20019;-82
2022/08/21 05:18:37;;;;;;;11.68;10.68;;;12.20;99.90;;;;;;6188681;23;20015;-82
2022/08/21 05:21:02;;;;;;;11.70;10.52;;;12.30;99.90;;;;;;6163986;23;20495;-82
2022/08/21 05:23:28;;;;;;;11.75;10.65;;;12.30;99.90;;;;;;6164180;23;20051;-82
2022/08/21 05:25:55;;;;;;;12.25;11.05;;;12.30;99.90;;;;;;6164184;23;20040;-82
2022/08/21 05:28:21;;;;;;;11.65;10.45;;;12.40;99.90;;;;;;6163623;23;20402;-82
2022/08/21 05:30:47;;;;;;;12.18;10.93;;;12.50;99.90;;;;;;6164136;23;20115;-82
2022/08/21 05:33:12;;;;;;;11.75;10.55;;;12.50;99.90;;;;;;6164148;23;20468;-82
2022/08/21 05:35:38;;;;;;;10.32;9.38;;;12.60;99.90;;;;;;6164070;23;20104;-82
2022/08/21 05:38:04;;;;;;;11.77;10.50;;;12.70;99.90;;;;;;6163787;23;20013;-82
2022/08/21 05:40:31;;;;;;;10.82;9.77;;;12.70;99.90;;;;;;6213806;23;20043;-82
2022/08/21 05:42:57;;;;;;;10.80;9.80;;;12.80;99.90;;;;;;6163938;23;20020;-82
2022/08/21 05:45:29;;;;;;;11.30;10.20;;;12.80;99.90;;;;;;6164192;23;20012;-82
2022/08/21 05:47:55;;;;;;;10.50;9.40;;;12.90;99.90;;;;;;6163563;23;20012;-82
2022/08/21 05:50:20;;;;;;;10.57;9.43;;;13.00;99.90;;;;;;6163622;23;20472;-82
2022/08/21 05:52:46;;;;;;;10.88;9.70;;;13.10;99.90;;;;;;6163902;23;20070;-82
2022/08/21 05:55:12;;;;;;;11.07;9.98;;;13.10;99.90;;;;;;6164055;23;20082;-82
2022/08/21 05:57:40;;;;;;;11.15;10.05;;;13.20;99.90;;;;;;6163609;23;20040;-82
2022/08/21 06:00:09;;;;;;;11.32;9.32;;;13.30;99.90;;;;;;6163508;23;20725;-82
2022/08/21 06:02:35;;;;;;;9.73;8.77;;;13.40;99.90;;;;;;6163781;23;20024;-81
2022/08/21 06:05:01;;;;;;;9.63;8.63;;;13.50;99.90;;;;;;6188521;23;20008;-82
2022/08/21 06:07:26;;;;;;;9.85;8.85;;;13.50;99.90;;;;;;6163070;23;20075;-82
2022/08/21 06:12:53;;;;;;;9.35;8.18;;;13.70;99.90;;;;;;6192094;22;20030;-79
2022/08/21 06:19:24;;;;;;;8.77;7.93;;;13.90;99.90;;;;;;6185755;23;20457;-80
2022/08/21 06:30:55;;;;;;;8.95;7.57;;;14.30;99.90;;;;;;6232829;23;20043;-79
2022/08/21 07:06:46;;;;;;;8.32;7.28;;;15.70;99.90;;;;;;6244290;23;20027;-80
2022/08/21 07:09:12;;;;;;;6.97;6.00;;;15.80;99.90;;;;;;6216991;23;20083;-80
2022/08/21 07:11:38;;;;;;;8.32;6.28;;;15.90;99.90;;;;;;6217824;23;20344;-80
2022/08/21 07:14:04;;;;;;;7.57;5.93;;;16.00;99.90;;;;;;6218479;23;20388;-84
2022/08/21 07:16:30;;;;;;;6.35;5.72;;;16.10;99.90;;;;;;6189369;23;20016;-82
2022/08/21 07:18:55;;;;;;;7.30;5.68;;;16.20;99.90;;;;;;6163172;23;20008;-82
2022/08/21 07:21:21;;;;;;;5.63;5.05;;;16.30;99.90;;;;;;6187944;23;20025;-82
2022/08/21 07:23:50;;;;;;;7.47;5.32;;;16.40;99.90;;;;;;6162756;23;20015;-83
2022/08/21 07:26:20;;;;;;;6.68;5.40;;;16.50;99.90;;;;;;6163951;23;20041;-82
2022/08/21 07:28:47;;;;;;;5.93;4.70;;;16.60;99.90;;;;;;6163728;23;20024;-81
2022/08/21 07:31:15;;;;;;;6.15;4.65;;;16.60;99.90;;;;;;6162926;23;20012;-81
2022/08/21 07:33:41;;;;;;;6.70;4.85;;;16.80;99.90;;;;;;6162927;23;20083;-81
2022/08/21 07:36:07;;;;;;;6.40;5.43;;;16.80;99.90;;;;;;6162571;23;20013;-82
2022/08/21 07:38:33;;;;;;;5.65;5.00;;;16.90;99.90;;;;;;6163073;23;20009;-81
2022/08/21 07:41:01;;;;;;;7.55;5.35;;;17.10;99.90;;;;;;6188167;23;20157;-81
2022/08/21 07:43:29;;;;;;;6.43;5.00;;;17.10;99.90;;;;;;6163188;23;20004;-81
2022/08/21 07:45:54;;;;;;;6.60;4.40;;;17.20;99.90;;;;;;6162522;23;20016;-84
2022/08/21 07:48:21;;;;;;;7.32;4.32;;;17.20;99.90;;;;;;6162856;23;20012;-81
2022/08/21 07:50:47;;;;;;;6.13;4.57;;;17.30;99.90;;;;;;6187963;23;20012;-81
2022/08/21 07:53:14;;;;;;;5.07;4.20;;;17.40;99.90;;;;;;6162957;23;20013;-81
2022/08/21 07:55:39;;;;;;;5.47;4.00;;;17.50;99.90;;;;;;6162967;23;20345;-81
2022/08/21 07:58:05;;;;;;;5.45;4.28;;;17.50;99.90;;;;;;6187719;23;20015;-81
2022/08/21 08:00:31;;;;;;;6.65;3.90;;;17.60;99.90;;;;;;6163151;23;20096;-81
2022/08/21 08:02:57;;;;;;;4.90;3.72;;;17.70;99.90;;;;;;6163042;23;20023;-81
2022/08/21 08:05:28;;;;;;;5.00;3.95;;;17.80;99.90;;;;;;6187523;23;20374;-81
2022/08/21 08:07:54;;;;;;;5.88;3.95;;;17.90;99.90;;;;;;6162584;23;20048;-81
2022/08/21 08:10:21;;;;;;;8.00;4.30;;;18.00;99.90;;;;;;6163130;23;20012;-82
2022/08/21 08:12:47;;;;;;;5.30;3.30;;;18.00;99.90;;;;;;6187446;23;20016;-81
2022/08/21 08:15:19;;;;;;;4.50;2.80;;;18.20;99.90;;;;;;6162258;23;20043;-81
2022/08/21 08:17:44;;;;;;;3.08;2.13;;;18.30;99.90;;;;;;6187697;23;20015;-80
2022/08/21 08:20:12;;;;;;;2.58;1.30;;;18.40;99.90;;;;;;6187496;23;20040;-80
2022/08/21 08:22:41;;;;;;;2.78;1.50;;;18.50;99.90;;;;;;6162219;23;20008;-81
2022/08/21 08:25:09;;;;;;;2.65;1.30;;;18.60;99.90;;;;;;6187700;23;20023;-80
2022/08/21 08:27:34;;;;;;;4.80;1.40;;;18.70;99.90;;;;;;6162247;23;20095;-80
2022/08/21 08:30:01;;;;;;;5.15;1.65;;;18.90;99.90;;;;;;6162575;23;20070;-81
2022/08/21 08:32:27;;;;;;;3.45;1.30;;;19.30;99.90;;;;;;6187654;23;20092;-81
2022/08/21 08:34:52;;;;;;;5.05;1.55;;;20.00;99.90;;;;;;6162874;23;20040;-80
2022/08/21 08:37:19;;;;;;;3.22;1.30;;;20.70;99.90;;;;;;6187360;23;20345;-82
2022/08/21 08:39:45;;;;;;;2.42;1.25;;;21.40;99.90;;;;;;6187760;23;20384;-82
2022/08/21 08:42:15;;;;;;;2.63;1.25;;;22.20;99.90;;;;;;6162830;23;20021;-81
2022/08/21 08:44:42;;;;;;;1.90;1.00;;;22.90;99.90;;;;;;6162776;23;20020;-81
2022/08/21 08:47:12;;;;;;;3.55;1.63;;;23.50;99.90;;;;;;6186910;23;20024;-82
2022/08/21 08:49:49;;;;;;;2.25;0.90;;;24.00;99.90;;;;;;6189086;23;20017;-82
2022/08/21 08:52:21;;;;;;;3.80;1.02;;;24.50;99.90;;;;;;6189586;23;20345;-81
2022/08/21 08:55:02;;;;;;;1.88;1.08;;;25.00;99.90;;;;;;6189567;23;20015;-82
2022/08/21 08:57:30;;;;;;;3.58;0.73;;;25.40;99.90;;;;;;6165290;23;20020;-81
2022/08/21 08:59:59;;;;;;;2.00;0.80;;;25.80;99.90;;;;;;6189380;23;20004;-81
2022/08/21 09:02:27;;;;;;;2.13;1.17;;;26.10;99.90;;;;;;6164892;23;20088;-81
2022/08/21 09:04:53;;;;;;;2.58;0.82;;;26.30;99.90;;;;;;6189336;23;20009;-81
2022/08/21 09:07:25;;;;;;;2.47;1.00;;;26.60;99.90;;;;;;6164482;23;20013;-82
2022/08/21 09:10:12;;;;;;;2.72;0.90;;;26.80;99.90;;;;;;6165495;23;20016;-81
2022/08/21 09:13:18;;;;;;;3.17;0.80;;;27.00;99.90;;;;;;6164987;23;20106;-81
2022/08/21 09:16:10;;;;;;;2.72;1.10;;;27.30;95.40;;;;;;6189500;23;20344;-82
2022/08/21 09:18:47;;;;;;;2.45;1.10;;;27.50;96.20;;;;;;6189309;23;20083;-81
2022/08/21 09:21:48;;;;;;;3.35;1.00;;;27.70;93.60;;;;;;6165400;23;20009;-81
2022/08/21 09:24:28;;;;;;;3.83;1.30;;;27.80;93.50;;;;;;6188307;23;20469;-81
2022/08/21 09:27:14;;;;;;;2.65;1.20;;;28.00;93.20;;;;;;6165137;23;20009;-84
2022/08/21 09:29:43;;;;;;;2.60;1.20;;;28.20;89.40;;;;;;6165489;23;20009;-81
2022/08/21 09:32:31;;;;;;;2.83;1.20;;;28.40;92.40;;;;;;6189667;23;20017;-81
2022/08/21 09:35:06;;;;;;;2.38;0.98;;;28.40;89.40;;;;;;6188746;23;20012;-82
2022/08/21 09:37:44;;;;;;;2.92;1.20;;;28.40;82.80;;;;;;6189380;23;20020;-81
2022/08/21 09:40:32;;;;;;;2.70;1.17;;;28.50;87.30;;;;;;6164116;23;20095;-81
2022/08/21 09:43:01;;;;;;;2.95;1.48;;;28.60;82.40;;;;;;6189582;23;20013;-80
2022/08/21 09:45:27;;;;;;;3.03;1.42;;;28.30;85.50;;;;;;6165264;23;20019;-81
2022/08/21 09:47:52;;;;;;;2.22;1.20;;;28.00;84.50;;;;;;6164986;23;20413;-81
2022/08/21 09:50:25;;;;;;;3.13;1.55;;;28.00;85.50;;;;;;6165538;23;20024;-81
2022/08/21 09:52:55;;;;;;;3.60;1.50;;;28.10;85.10;;;;;;6189814;23;20042;-81
2022/08/21 09:58:17;;;;;;;3.33;1.25;;;28.60;83.00;;;;;;6189295;23;20070;-81
2022/08/21 10:00:44;;;;;;;3.60;0.98;;;28.70;82.40;;;;;;6188663;23;20451;-80
2022/08/21 10:03:10;;;;;;;1.83;1.13;;;28.80;82.60;;;;;;6189083;23;20306;-81
2022/08/21 10:05:39;;;;;;;3.50;1.60;;;29.00;81.40;;;;;;6164983;23;20008;-80
2022/08/21 10:08:05;;;;;;;3.53;1.00;;;28.90;80.60;;;;;;6189382;23;20439;-81
2022/08/21 10:10:36;;;;;;;2.67;0.90;;;28.60;80.00;;;;;;6166117;23;20052;-80
2022/08/21 10:13:24;;;;;;;3.70;0.95;;;28.40;79.10;;;;;;6165223;23;20024;-81
2022/08/21 10:16:10;;;;;;;3.17;1.20;;;27.80;76.40;;;;;;6188938;23;20073;-80
2022/08/21 10:18:42;;;;;;;2.45;1.15;;;27.30;77.70;;;;;;6189040;23;20005;-81
2022/08/21 10:21:19;;;;;;;2.08;1.13;;;26.80;79.40;;;;;;6189635;23;20008;-80
2022/08/21 10:23:58;;;;;;;2.15;1.05;;;26.40;80.80;;;;;;6189545;23;20015;-81
2022/08/21 10:26:43;;;;;;;1.55;0.82;;;26.40;82.50;;;;;;6165396;23;20015;-81
2022/08/21 10:29:24;;;;;;;2.10;0.82;;;26.50;83.30;;;;;;6161530;23;20009;-79
2022/08/21 10:32:26;;;;;;;3.47;1.17;;;26.80;84.20;;;;;;6163142;23;20020;-82
2022/08/21 10:35:01;;;;;;;2.75;1.10;;;27.30;81.80;;;;;;6188681;23;20012;-81
2022/08/21 10:37:45;;;;;;;2.13;1.00;;;27.70;82.40;;;;;;6188032;23;20013;-80
2022/08/21 10:40:41;;;;;;;4.00;0.95;;;28.00;80.30;;;;;;6185733;23;20031;-80
2022/08/21 10:43:21;;;;;;;2.70;1.00;;;28.10;76.90;;;;;;6162881;23;20035;-80
2022/08/21 10:46:12;;;;;;;2.40;1.10;;;28.30;77.40;;;;;;6188453;23;20013;-80
2022/08/21 10:48:59;;;;;;;2.80;1.20;;;28.40;78.00;;;;;;6187978;23;20066;-79
2022/08/21 10:51:36;;;;;;;2.60;1.10;;;28.20;77.80;;;;;;6162716;23;20012;-79
2022/08/21 10:54:20;;;;;;;1.50;0.90;;;27.90;77.50;;;;;;6161770;23;20013;-79
2022/08/21 10:56:48;;;;;;;2.28;0.85;;;27.40;78.50;;;;;;6162403;23;20013;-79
2022/08/21 10:59:26;;;;;;;2.55;1.00;;;27.40;80.70;;;;;;6187534;23;20092;-78
2022/08/21 11:02:03;;;;;;;2.35;0.95;;;27.50;79.30;;;;;;6188312;23;20341;-79
2022/08/21 11:04:31;;;;;;;2.15;0.77;;;27.90;80.10;;;;;;6187757;23;20012;-79
2022/08/21 11:07:03;;;;;;;2.30;0.90;;;28.20;79.30;;;;;;6186647;23;20009;-79
2022/08/21 11:09:30;;;;;;;3.13;0.98;;;28.40;77.70;;;;;;6187975;23;20344;-79
2022/08/21 11:12:19;;;;;;;2.40;0.85;;;28.60;77.70;;;;;;6185741;23;20019;-78
2022/08/21 11:15:00;;;;;;;2.67;0.70;;;28.70;71.60;;;;;;6187587;23;20005;-79
2022/08/21 11:17:58;;;;;;;3.25;1.08;;;28.40;72.80;;;;;;6187789;23;20066;-80
2022/08/21 11:20:33;;;;;;;2.60;0.70;;;28.30;75.20;;;;;;6156436;23;20013;-81
2022/08/21 11:23:36;;;;;;;2.67;1.00;;;28.40;74.40;;;;;;6162762;23;20135;-79
2022/08/21 11:26:08;;;;;;;2.70;0.90;;;28.60;70.50;;;;;;6147646;23;20013;-79
2022/08/21 11:29:01;;;;;;;2.10;0.90;;;28.60;74.50;;;;;;6187421;23;20013;-79
2022/08/21 11:31:55;;;;;;;1.77;0.93;;;28.80;72.90;;;;;;6186378;23;20016;-79
2022/08/21 11:34:48;;;;;;;2.05;0.90;;;28.90;70.90;;;;;;6187630;23;20083;-79
2022/08/21 11:37:16;;;;;;;;;;;29.00;72.30;;;;;;6162624;23;20013;-79
2022/08/21 11:40:00;;;;;;;3.25;1.00;;;29.20;72.00;;;;;;6187179;23;19912;-80
2022/08/21 11:42:50;;;;;;;2.88;1.17;;;29.30;73.60;;;;;;6162956;23;20009;-80
2022/08/21 11:45:41;;;;;;;2.35;1.23;;;29.60;72.90;;;;;;6187536;23;20459;-80
2022/08/21 11:48:14;;;;;;;3.90;1.23;;;29.90;67.50;;;;;;6186770;23;20027;-79
2022/08/21 11:50:42;;;;;;;1.70;0.95;;;30.00;72.10;;;;;;6187950;23;20016;-81
2022/08/21 11:53:30;;;;;;;2.72;1.10;;;29.90;71.00;;;;;;6186394;23;20015;-82
2022/08/21 11:56:01;;;;;;;1.95;0.98;;;29.90;71.20;;;;;;6186599;23;20489;-82
2022/08/21 11:58:52;;;;;;;1.83;0.80;;;29.70;70.20;;;;;;6186781;23;20472;-81
2022/08/21 12:01:21;;;;;;;2.90;1.23;;;29.40;69.40;;;;;;6188314;23;20474;-81
2022/08/21 12:04:19;;;;;;;1.25;0.73;;;29.20;72.30;;;;;;6187707;23;20015;-82
2022/08/21 12:06:45;;;;;;;1.90;0.88;;;29.40;71.30;;;;;;6182743;23;20067;-82
2022/08/21 12:09:34;;;;;;;2.22;0.95;;;29.40;70.20;;;;;;6162958;23;20009;-81
2022/08/21 12:12:03;;;;;;;2.78;0.88;;;29.30;66.40;;;;;;6162407;23;20040;-81
2022/08/21 12:14:37;;;;;;;1.90;1.10;;;29.20;69.80;;;;;;6161403;23;20019;-81
2022/08/21 12:17:07;;;;;;;1.98;0.90;;;29.30;67.40;;;;;;6161312;23;20444;-80
2022/08/21 12:19:34;;;;;;;3.20;0.98;;;29.20;69.30;;;;;;6187101;23;20016;-81
2022/08/21 12:22:06;;;;;;;2.40;1.00;;;29.00;70.20;;;;;;6161911;23;20028;-81
2022/08/21 12:24:46;;;;;;;2.72;1.02;;;29.20;70.80;;;;;;6187405;23;20016;-81
2022/08/21 12:27:24;;;;;;;1.10;0.73;;;29.20;70.80;;;;;;6186743;23;20392;-81
2022/08/21 12:29:55;;;;;;;2.85;1.10;;;29.00;70.80;;;;;;6186155;23;20091;-81
2022/08/21 12:32:42;;;;;;;1.95;0.77;;;28.80;70.40;;;;;;6186232;23;20127;-82
2022/08/21 12:35:16;;;;;;;3.75;1.30;;;28.50;71.40;;;;;;6162439;23;20009;-82
2022/08/21 12:37:51;;;;;;;3.20;1.02;;;28.20;72.00;;;;;;6162021;23;20004;-81
2022/08/21 12:40:22;;;;;;;1.73;0.98;;;27.90;71.00;;;;;;6184970;23;20386;-80
2022/08/21 12:42:51;;;;;;;2.08;0.82;;;27.60;71.10;;;;;;6162400;23;20020;-82
2022/08/21 12:45:27;;;;;;;3.83;1.00;;;27.50;72.40;;;;;;6162502;23;20035;-82
2022/08/21 12:47:58;;;;;;;2.13;1.00;;;27.40;72.40;;;;;;6162159;23;20009;-83
2022/08/21 12:50:51;;;;;;;2.13;0.98;;;27.10;73.10;;;;;;6161692;23;20025;-82
2022/08/21 12:53:26;;;;;;;;;;;26.90;73.80;;;;;;6162770;23;20016;-81
2022/08/21 12:55:52;;;;;;;2.92;0.85;;;26.70;74.80;;;;;;6162047;23;20005;-83
2022/08/21 12:58:24;;;;;;;4.30;1.50;;;26.50;75.10;;;;;;6162300;23;20013;-82
2022/08/21 13:01:06;;;;;;;2.93;1.10;;;26.40;74.80;;;;;;6162469;23;20008;-82
2022/08/21 13:03:36;;;;;;;2.30;1.02;;;26.30;74.60;;;;;;6162432;23;20012;-81
2022/08/21 13:06:30;;;;;;;2.50;1.10;;;26.20;75.90;;;;;;6184134;23;20017;-80
2022/08/21 13:09:16;;;;;;;3.58;1.20;;;26.40;76.40;;;;;;6162953;23;20026;-79
2022/08/21 13:11:48;;;;;;;2.50;0.95;;;26.70;76.10;;;;;;6164328;23;20013;-79
2022/08/21 13:15:56;;;;;;;3.90;1.08;;;26.90;76.00;;;;;;6190000;23;20044;-79
2022/08/21 13:18:37;;;;;;;2.95;1.15;;;27.30;75.20;;;;;;6178986;23;20020;-81
2022/08/21 13:21:40;;;;;;;2.35;1.00;;;27.70;74.50;;;;;;6175944;23;20017;-80
2022/08/21 13:24:46;;;;;;;2.28;1.10;;;28.10;74.40;;;;;;6135273;23;20044;-80
2022/08/21 13:27:47;;;;;;;3.50;1.17;;;28.30;73.60;;;;;;6133526;23;20010;-80
2022/08/21 13:30:37;;;;;;;2.67;1.00;;;28.30;72.10;;;;;;6141208;23;20100;-79
2022/08/21 13:33:42;;;;;;;2.35;0.93;;;28.00;73.20;;;;;;6138665;23;20032;-80
2022/08/21 13:36:49;;;;;;;3.72;1.23;;;27.70;73.30;;;;;;6161003;23;20021;-80
2022/08/21 13:39:43;;;;;;;2.58;0.88;;;27.40;72.80;;;;;;6164568;23;20091;-80
2022/08/21 13:42:24;;;;;;;1.05;0.90;;;27.10;74.00;;;;;;6135464;23;20017;-80
2022/08/21 13:45:24;;;;;;;2.17;1.00;;;26.90;74.10;;;;;;6162602;23;20369;-79
2022/08/21 13:48:05;;;;;;;2.63;1.13;;;26.60;75.00;;;;;;6129626;23;20072;-79
2022/08/21 13:50:51;;;;;;;1.42;0.90;;;26.30;75.40;;;;;;6134858;23;20441;-80
2022/08/21 13:53:55;;;;;;;2.38;1.35;;;26.00;75.50;;;;;;6134027;23;20012;-80
2022/08/21 13:57:13;;;;;;;2.72;1.13;;;25.80;76.10;;;;;;6099523;23;20026;-79
2022/08/21 14:00:13;;;;;;;3.28;1.50;;;25.40;75.70;;;;;;6054375;23;20022;-79
2022/08/21 14:03:27;;;;;;;3.03;1.50;;;25.20;77.30;;;;;;6063630;23;20018;-79
2022/08/21 14:06:27;;;;;;;2.33;1.08;;;24.90;77.80;;;;;;6145906;23;20018;-80
2022/08/21 14:09:08;;;;;;;2.83;1.55;;;24.70;78.70;;;;;;6129010;23;20029;-77
2022/08/21 14:11:40;;;;;;;2.40;1.55;;;24.80;79.60;;;;;;6133368;23;20013;-78